Terminal Aerodrome Forecast
Issued by NWS

Home | Current Version | Previous Version | Text Only | Print | Product List | Glossary On
Versions: 1 2 3 4 5 6 7 8 9 10 11 12
139
FTUS42 TJSJ 122338
TAFKPK
TAF
TKPK 122338Z 1300/1324 07010KT P6SM FEW018 SCT035
     FM130450 06008KT P6SM VCSH SCT018
     FM131400 09012KT P6SM FEW024
      AMD NOT SKED 1302/1311=

USA.gov is the U.S. government's official web portal to all federal, state and local government web resources and services.